KSYR/SYR METAR and TAF weather

Enter ICAO airport designator
Station Type Date Time Source
KSYR METAR 2019/06/18 14:54 UTC NOAA

KSYR 181454Z 11004KT 10SM FEW055 BKN065 OVC180 21/14 A2993 RMK AO2 SLP132 T02060144 58005


Station Type Date Time Source
KSYR Decoded METAR 2019/06/18 14:54 UTC NOAA

SYRACUSE HANCOCK INTERNATIONAL AIRPORT , NY, United States (KSYR) 43-07N 76-06W 127M
Jun 18, 2019 - 10:54 AM EDT / 2019.06.18 1454 UTC
Wind: from the ESE (110 degrees) at 5 MPH (4 KT):0
Visibility: 10 mile(s):0
Sky conditions: overcast
Temperature: 69.1 F (20.6 C)
Dew Point: 57.9 F (14.4 C)
Relative Humidity: 67%
Pressure (altimeter): 29.93 in. Hg (1013 hPa)
Pressure tendency: 0.01 inches (0.5 hPa) lower than three hours ago
ob: KSYR 181454Z 11004KT 10SM FEW055 BKN065 OVC180 21/14 A2993 RMK AO2 SLP132 T02060144 58005
cycle: 15

Station Type Date Time Source
KSYR TAF 2019/06/18 12:24 UTC NOAA

TAF KSYR 181121Z 1812/1912 VRB03KT P6SM SCT250
FM191000 00000KT P6SM BKN035

Example: see airport list